createdAt,value
2017-11-06T00:00:29.041Z,30.80
2017-11-06T00:02:56.590Z,30.20
2017-11-06T00:05:24.898Z,25.50
2017-11-06T00:07:52.881Z,31.43
2017-11-06T00:10:20.416Z,36.43
2017-11-06T00:12:47.992Z,39.27
2017-11-06T00:15:19.019Z,41.10
2017-11-06T00:17:46.572Z,38.90
2017-11-06T00:20:14.115Z,39.47
2017-11-06T00:22:42.483Z,38.73
2017-11-06T00:25:11.101Z,37.00
2017-11-06T00:27:38.626Z,40.97
2017-11-06T00:30:06.175Z,37.47
2017-11-06T00:32:33.725Z,30.97
2017-11-06T00:35:01.239Z,39.43
2017-11-06T00:37:28.795Z,36.80
2017-11-06T00:39:57.078Z,30.97
2017-11-06T00:42:24.907Z,29.40
2017-11-06T00:44:52.427Z,26.13
2017-11-06T00:47:20.007Z,30.03
2017-11-06T00:49:47.574Z,34.40
2017-11-06T00:52:15.078Z,30.27
2017-11-06T00:54:42.633Z,35.80
2017-11-06T00:57:10.914Z,31.30
2017-11-06T00:59:38.731Z,37.40
2017-11-06T01:02:06.237Z,32.73
2017-11-06T01:04:34.522Z,39.90
2017-11-06T01:07:02.087Z,35.23
2017-11-06T01:09:29.618Z,33.93
2017-11-06T01:12:00.738Z,33.27
2017-11-06T01:14:28.262Z,36.00
2017-11-06T01:16:55.818Z,34.10
2017-11-06T01:19:23.368Z,39.10
2017-11-06T01:21:50.900Z,41.70
2017-11-06T01:24:18.472Z,39.00
2017-11-06T01:26:46.762Z,37.40
2017-11-06T01:29:15.382Z,32.13
2017-11-06T01:31:42.895Z,34.53
2017-11-06T01:34:11.183Z,34.90
2017-11-06T01:36:38.729Z,35.53
2017-11-06T01:39:06.250Z,32.40
2017-11-06T01:41:33.848Z,36.37
2017-11-06T01:44:02.166Z,33.50
2017-11-06T01:46:30.049Z,37.97
2017-11-06T01:48:57.582Z,31.97
2017-11-06T01:51:25.114Z,28.93
2017-11-06T01:53:55.589Z,32.00
2017-11-06T01:56:23.127Z,34.07
2017-11-06T01:58:50.661Z,32.30
2017-11-06T02:01:18.201Z,34.83
2017-11-06T02:03:45.842Z,37.43
2017-11-06T02:06:13.366Z,35.97
2017-11-06T02:08:41.269Z,30.00
2017-11-06T02:11:08.852Z,30.13
2017-11-06T02:13:36.374Z,29.53
2017-11-06T02:16:03.946Z,26.83
2017-11-06T02:18:31.469Z,29.93
2017-11-06T02:20:59.842Z,30.20
2017-11-06T02:23:28.138Z,36.37
2017-11-06T02:25:55.946Z,31.43
2017-11-06T02:28:23.466Z,21.00
2017-11-06T02:30:51.024Z,29.27
2017-11-06T02:33:18.576Z,32.33
2017-11-06T02:35:46.094Z,32.57
2017-11-06T02:38:13.650Z,32.03
2017-11-06T02:40:41.171Z,29.97
2017-11-06T02:43:08.730Z,33.93
2017-11-06T02:45:36.254Z,31.70
2017-11-06T02:48:03.779Z,29.13
2017-11-06T02:50:31.343Z,31.83
2017-11-06T02:52:58.839Z,30.20
2017-11-06T02:55:26.397Z,31.90
2017-11-06T02:57:53.894Z,30.87
2017-11-06T03:00:21.729Z,22.17
2017-11-06T03:02:49.250Z,29.13
2017-11-06T03:05:16.808Z,26.37
2017-11-06T03:07:44.399Z,27.90
2017-11-06T03:10:11.927Z,26.70
2017-11-06T03:12:39.479Z,27.30
2017-11-06T03:15:07.251Z,26.63
2017-11-06T03:17:36.049Z,27.20
2017-11-06T03:20:03.571Z,28.50
2017-11-06T03:22:31.083Z,24.13
2017-11-06T03:24:58.654Z,31.50
2017-11-06T03:27:26.181Z,32.43
2017-11-06T03:29:54.042Z,28.93
2017-11-06T03:32:21.557Z,30.63
2017-11-06T03:34:49.838Z,33.63
2017-11-06T03:37:18.159Z,30.27
2017-11-06T03:39:45.718Z,34.43
2017-11-06T03:42:13.500Z,30.13
2017-11-06T03:44:41.211Z,30.47
2017-11-06T03:47:09.061Z,27.90
2017-11-06T03:49:36.574Z,26.87
2017-11-06T03:52:04.143Z,28.33
2017-11-06T03:54:31.732Z,24.00
2017-11-06T03:56:59.246Z,29.80
2017-11-06T03:59:26.806Z,31.53
2017-11-06T04:01:54.330Z,30.90
2017-11-06T04:04:22.146Z,34.57
2017-11-06T04:06:49.698Z,30.20
2017-11-06T04:09:17.255Z,28.50
2017-11-06T04:11:44.813Z,32.13
2017-11-06T04:14:12.333Z,30.63
2017-11-06T04:16:40.677Z,26.63
2017-11-06T04:19:08.243Z,28.63
2017-11-06T04:21:35.839Z,29.17
2017-11-06T04:24:04.142Z,33.07
2017-11-06T04:26:31.963Z,27.37
2017-11-06T04:28:59.627Z,30.13
2017-11-06T04:31:27.163Z,24.17
2017-11-06T04:33:54.812Z,27.43
2017-11-06T04:36:22.359Z,24.77
2017-11-06T04:38:49.950Z,27.60
2017-11-06T04:41:17.499Z,30.63
2017-11-06T04:43:45.394Z,22.77
2017-11-06T04:46:12.927Z,24.67
2017-11-06T04:48:40.447Z,24.30
2017-11-06T04:51:07.999Z,23.03
2017-11-06T04:53:36.314Z,24.03
2017-11-06T04:56:03.881Z,20.23
2017-11-06T04:58:31.402Z,21.23
2017-11-06T05:01:00.027Z,25.00
2017-11-06T05:03:27.564Z,25.87
2017-11-06T05:05:55.113Z,17.23
2017-11-06T05:08:22.696Z,26.10
2017-11-06T05:10:50.227Z,26.77
2017-11-06T05:13:17.828Z,27.33
2017-11-06T05:15:45.417Z,25.00
2017-11-06T05:18:13.385Z,28.70
2017-11-06T05:20:40.925Z,24.80
2017-11-06T05:23:08.569Z,22.13
2017-11-06T05:25:36.157Z,23.30
2017-11-06T05:28:03.778Z,23.67
2017-11-06T05:30:32.127Z,20.50
2017-11-06T05:32:59.645Z,21.53
2017-11-06T05:35:27.608Z,25.20
2017-11-06T05:37:55.130Z,24.60
2017-11-06T05:40:22.669Z,25.10
2017-11-06T05:42:50.242Z,23.20
2017-11-06T05:45:17.762Z,25.93
2017-11-06T05:47:45.317Z,21.57
2017-11-06T05:50:12.884Z,22.67
2017-11-06T05:52:40.723Z,37.23
2017-11-06T05:55:08.251Z,25.60
2017-11-06T05:57:35.769Z,20.53
2017-11-06T06:00:03.342Z,16.60
2017-11-06T06:02:30.922Z,24.40
2017-11-06T06:04:58.765Z,23.90
2017-11-06T06:07:27.586Z,26.23
2017-11-06T06:09:55.215Z,22.93
2017-11-06T06:12:22.774Z,24.57
2017-11-06T06:14:50.274Z,21.93
2017-11-06T06:17:18.097Z,28.90
2017-11-06T06:19:45.667Z,22.40
2017-11-06T06:22:13.204Z,25.50
2017-11-06T06:24:40.771Z,21.93
2017-11-06T06:27:08.315Z,20.07
2017-11-06T06:29:35.895Z,19.23
2017-11-06T06:32:03.418Z,20.80
2017-11-06T06:34:31.204Z,24.20
2017-11-06T06:36:58.758Z,18.67
2017-11-06T06:39:26.299Z,19.93
2017-11-06T06:41:53.882Z,17.43
2017-11-06T06:44:21.413Z,19.77
2017-11-06T06:46:48.998Z,18.50
2017-11-06T06:49:16.568Z,21.67
2017-11-06T06:51:44.102Z,18.87
2017-11-06T07:02:58.721Z,17.70
2017-11-06T07:05:27.014Z,23.17
2017-11-06T07:07:55.151Z,24.43
2017-11-06T07:10:22.673Z,17.73
2017-11-06T07:12:50.205Z,17.03
2017-11-06T07:15:18.531Z,22.20
2017-11-06T07:17:46.118Z,19.80
2017-11-06T07:20:13.677Z,28.93
2017-11-06T07:22:44.718Z,18.07
2017-11-06T07:25:13.271Z,22.50
2017-11-06T07:27:40.793Z,23.47
2017-11-06T07:30:09.108Z,21.40
2017-11-06T07:32:36.969Z,17.77
2017-11-06T07:35:04.478Z,25.07
2017-11-06T07:37:33.891Z,20.07
2017-11-06T07:40:01.484Z,20.77
2017-11-06T07:42:29.066Z,16.47
2017-11-06T07:44:57.034Z,21.37
2017-11-06T07:47:24.550Z,19.80
2017-11-06T07:49:52.853Z,21.40
2017-11-06T07:52:20.412Z,15.87
2017-11-06T07:54:47.939Z,23.13
2017-11-06T07:57:16.034Z,14.13
2017-11-06T07:59:43.566Z,20.40
2017-11-06T08:02:11.102Z,16.77
2017-11-06T08:04:38.657Z,16.00
2017-11-06T08:07:06.226Z,18.33
2017-11-06T08:09:34.143Z,17.47
2017-11-06T08:12:01.674Z,21.77
2017-11-06T08:14:29.190Z,18.33
2017-11-06T08:16:56.759Z,17.73
2017-11-06T08:19:24.342Z,20.70
2017-11-06T08:21:52.296Z,19.97
2017-11-06T08:24:19.853Z,18.90
2017-11-06T08:26:47.419Z,14.37
2017-11-06T08:29:15.014Z,18.63
2017-11-06T08:31:42.595Z,14.77
2017-11-06T08:34:11.279Z,16.53
2017-11-06T08:36:38.880Z,16.63
2017-11-06T08:39:06.414Z,18.13
2017-11-06T08:41:33.969Z,14.77
2017-11-06T08:44:02.273Z,15.00
2017-11-06T08:46:29.846Z,17.37
2017-11-06T08:48:57.390Z,19.20
2017-11-06T08:51:24.935Z,19.83
2017-11-06T08:53:52.462Z,18.10
2017-11-06T08:56:20.035Z,19.13
2017-11-06T08:58:47.652Z,15.70
2017-11-06T09:01:15.191Z,17.13
2017-11-06T09:03:42.812Z,22.23
2017-11-06T09:06:11.129Z,17.10
2017-11-06T09:08:38.689Z,15.30
2017-11-06T09:11:06.211Z,16.37
2017-11-06T09:13:33.784Z,17.07
2017-11-06T09:16:02.097Z,16.90
2017-11-06T09:18:29.646Z,20.70
2017-11-06T09:20:57.167Z,21.43
2017-11-06T09:23:24.727Z,17.10
2017-11-06T09:25:52.251Z,17.53
2017-11-06T09:28:19.970Z,17.40
2017-11-06T09:30:47.480Z,20.43
2017-11-06T09:33:15.017Z,15.80
2017-11-06T09:35:42.554Z,19.23
2017-11-06T09:38:10.908Z,18.50
2017-11-06T09:40:38.434Z,17.73
2017-11-06T09:43:06.274Z,18.33
2017-11-06T09:45:33.794Z,16.20
2017-11-06T09:48:01.348Z,20.23
2017-11-06T09:50:28.945Z,19.00
2017-11-06T09:52:56.531Z,19.73
2017-11-06T09:55:24.056Z,21.63
2017-11-06T09:57:52.391Z,16.27
2017-11-06T10:00:19.943Z,19.50
2017-11-06T10:02:48.279Z,19.17
2017-11-06T10:05:16.614Z,16.40
2017-11-06T10:07:44.176Z,19.80
2017-11-06T10:10:11.738Z,24.87
2017-11-06T10:12:39.322Z,22.60
2017-11-06T10:15:06.886Z,21.80
2017-11-06T10:17:34.533Z,19.00
2017-11-06T10:20:02.062Z,23.17
2017-11-06T10:22:29.575Z,17.43
2017-11-06T10:24:57.123Z,18.23
2017-11-06T10:27:24.626Z,22.40
2017-11-06T10:29:52.169Z,18.30
2017-11-06T10:32:19.871Z,20.17
2017-11-06T10:34:47.437Z,21.63
2017-11-06T10:37:14.981Z,20.97
2017-11-06T10:39:42.678Z,17.23
2017-11-06T10:42:10.214Z,23.63
2017-11-06T10:44:42.630Z,18.17
2017-11-06T10:47:10.412Z,16.07
2017-11-06T10:49:38.030Z,22.63
2017-11-06T10:52:05.605Z,21.30
2017-11-06T10:54:33.167Z,16.83
2017-11-06T10:57:01.521Z,23.40
2017-11-06T10:59:29.085Z,28.30
2017-11-06T11:01:56.628Z,26.60
2017-11-06T11:04:24.194Z,19.30
2017-11-06T11:06:52.914Z,20.37
2017-11-06T11:09:20.546Z,19.23
2017-11-06T11:11:48.068Z,20.23
2017-11-06T11:14:15.642Z,19.60
2017-11-06T11:16:43.198Z,23.43
2017-11-06T11:19:10.788Z,25.07
2017-11-06T11:21:38.325Z,18.17
2017-11-06T11:24:05.883Z,17.83
2017-11-06T11:26:34.249Z,18.27
2017-11-06T11:29:02.604Z,17.90
2017-11-06T11:31:30.175Z,18.23
2017-11-06T11:33:57.790Z,22.47
2017-11-06T11:36:25.334Z,20.77
2017-11-06T11:38:53.728Z,17.90
2017-11-06T11:41:21.306Z,21.13
2017-11-06T11:43:48.829Z,19.70
2017-11-06T11:46:16.412Z,24.77
2017-11-06T11:48:43.952Z,17.93
2017-11-06T11:51:11.509Z,16.43
2017-11-06T11:53:39.055Z,20.73
2017-11-06T11:56:07.468Z,16.93
2017-11-06T11:58:35.049Z,19.87
2017-11-06T12:01:02.646Z,18.40
2017-11-06T12:03:30.215Z,18.20
2017-11-06T12:05:57.856Z,20.33
2017-11-06T12:08:25.383Z,17.30
2017-11-06T12:10:52.992Z,17.07
2017-11-06T12:13:20.523Z,16.50
2017-11-06T12:15:48.081Z,17.50
2017-11-06T12:18:15.607Z,22.80
2017-11-06T12:20:43.170Z,17.00
2017-11-06T12:23:10.698Z,15.97
2017-11-06T12:25:39.026Z,20.43
2017-11-06T12:28:06.556Z,17.80
2017-11-06T12:30:34.869Z,19.23
2017-11-06T12:33:02.439Z,18.30
2017-11-06T12:35:29.999Z,13.90
2017-11-06T12:37:57.518Z,17.80
2017-11-06T12:40:25.102Z,15.57
2017-11-06T12:42:52.651Z,16.87
2017-11-06T12:45:20.211Z,18.03
2017-11-06T12:47:47.755Z,15.60
2017-11-06T12:50:15.322Z,21.57
2017-11-06T12:52:42.853Z,16.87
2017-11-06T12:55:10.405Z,17.13
2017-11-06T12:57:37.969Z,19.23
2017-11-06T13:00:05.496Z,19.97
2017-11-06T13:02:33.044Z,18.37
2017-11-06T13:05:00.573Z,21.70
2017-11-06T13:07:28.134Z,16.33
2017-11-06T13:09:56.466Z,15.73
2017-11-06T13:12:24.014Z,15.57
2017-11-06T13:14:51.559Z,15.10
2017-11-06T13:17:19.163Z,21.23
2017-11-06T13:19:46.731Z,14.67
2017-11-06T13:22:14.307Z,14.80
2017-11-06T13:24:41.934Z,18.23
2017-11-06T13:27:09.494Z,16.60
2017-11-06T13:29:37.237Z,14.93
2017-11-06T13:32:04.822Z,19.53
2017-11-06T13:34:32.342Z,14.83
2017-11-06T13:36:59.944Z,14.47
2017-11-06T13:39:27.465Z,15.43
2017-11-06T13:41:55.142Z,14.17
2017-11-06T13:44:22.687Z,15.70
2017-11-06T13:46:50.250Z,17.20
2017-11-06T13:49:17.831Z,14.57
2017-11-06T13:51:45.387Z,16.13
2017-11-06T13:54:12.922Z,14.10
2017-11-06T13:56:40.534Z,17.40
2017-11-06T13:59:08.056Z,15.80
2017-11-06T14:01:36.609Z,15.47
2017-11-06T14:04:07.320Z,15.77
2017-11-06T14:06:35.129Z,14.63
2017-11-06T14:09:04.954Z,16.97
2017-11-06T14:11:32.923Z,17.23
2017-11-06T14:14:04.739Z,18.40
2017-11-06T14:16:32.760Z,15.17
2017-11-06T14:19:00.318Z,13.97
2017-11-06T14:21:28.158Z,16.67
2017-11-06T14:23:55.867Z,13.20
2017-11-06T14:26:26.756Z,15.50
2017-11-06T14:28:55.065Z,16.90
2017-11-06T14:31:22.850Z,15.13
2017-11-06T14:33:50.942Z,15.57
2017-11-06T14:36:19.094Z,17.00
2017-11-06T14:38:47.987Z,16.10
2017-11-06T14:41:15.613Z,13.20
2017-11-06T14:43:44.026Z,14.07
2017-11-06T14:46:11.979Z,18.30
2017-11-06T14:48:57.622Z,17.57
2017-11-06T14:51:26.992Z,16.40
2017-11-06T14:53:55.546Z,15.63
2017-11-06T14:56:24.072Z,21.70
2017-11-06T14:58:53.129Z,15.90
2017-11-06T15:01:21.686Z,13.03
2017-11-06T15:03:50.896Z,16.57
2017-11-06T15:06:20.062Z,17.90
2017-11-06T15:08:48.131Z,16.93
2017-11-06T15:11:16.634Z,13.77
2017-11-06T15:13:45.094Z,17.83
2017-11-06T15:16:19.828Z,18.03
2017-11-06T15:22:11.402Z,16.47
2017-11-06T15:24:39.340Z,15.93
2017-11-06T15:27:06.975Z,15.67
2017-11-06T15:29:34.546Z,19.00
2017-11-06T15:32:02.298Z,16.70
2017-11-06T15:34:29.838Z,14.57
2017-11-06T15:36:57.397Z,16.10
2017-11-06T15:39:25.030Z,19.23
2017-11-06T15:42:08.466Z,15.50
2017-11-06T15:44:36.039Z,18.30
2017-11-06T15:47:07.433Z,18.23
2017-11-06T15:49:35.100Z,17.13
2017-11-06T15:52:02.819Z,16.90
2017-11-06T15:54:30.385Z,19.70
2017-11-06T15:56:58.700Z,20.70
2017-11-06T15:59:26.278Z,23.40
2017-11-06T16:01:54.265Z,19.80
2017-11-06T16:04:26.806Z,23.80
2017-11-06T16:06:56.069Z,21.07
2017-11-06T16:09:28.291Z,23.33
2017-11-06T16:11:55.831Z,21.83
2017-11-06T16:14:24.077Z,18.60
2017-11-06T16:16:51.678Z,22.00
2017-11-06T16:19:19.454Z,19.77
2017-11-06T16:21:47.351Z,19.33
2017-11-06T16:24:14.914Z,25.67
2017-11-06T16:26:42.501Z,20.13
2017-11-06T16:29:10.035Z,19.07
2017-11-06T16:31:37.550Z,19.67
2017-11-06T16:34:07.265Z,20.30
2017-11-06T16:36:37.994Z,22.87
2017-11-06T16:39:05.526Z,24.63
2017-11-06T16:41:33.880Z,17.53
2017-11-06T16:44:02.257Z,26.67
2017-11-06T16:46:29.819Z,24.00
2017-11-06T16:48:57.358Z,27.90
2017-11-06T16:51:24.934Z,21.90
2017-11-06T16:53:53.305Z,24.13
2017-11-06T16:56:20.832Z,23.63
2017-11-06T16:58:48.653Z,22.23
2017-11-06T17:01:21.324Z,18.27
2017-11-06T17:03:50.247Z,21.87
2017-11-06T17:06:17.862Z,18.80
2017-11-06T17:08:45.557Z,23.43
2017-11-06T17:11:15.215Z,23.80
2017-11-06T17:13:47.701Z,23.20
2017-11-06T17:16:16.014Z,25.70
2017-11-06T17:18:44.375Z,29.00
2017-11-06T17:48:17.297Z,19.77
2017-11-06T17:53:44.155Z,23.90
2017-11-06T17:56:20.099Z,26.67
2017-11-06T17:59:06.981Z,27.53
2017-11-06T18:01:35.358Z,32.23
2017-11-06T18:23:47.219Z,29.37
2017-11-06T18:26:15.434Z,29.73
2017-11-06T18:28:43.013Z,30.33
2017-11-06T18:31:10.695Z,23.70
2017-11-06T18:33:38.431Z,31.07
2017-11-06T18:36:06.165Z,28.97
2017-11-06T18:38:33.865Z,26.23
2017-11-06T18:41:01.920Z,24.80
2017-11-06T18:58:02.534Z,29.50
2017-11-06T19:00:31.686Z,26.17
2017-11-06T19:05:48.904Z,23.20
2017-11-06T19:08:16.812Z,29.17
2017-11-06T19:13:52.888Z,22.60
2017-11-06T19:16:22.866Z,23.93
2017-11-06T19:18:50.553Z,34.53
2017-11-06T19:21:20.202Z,24.83
2017-11-06T19:23:48.470Z,26.73
2017-11-06T19:26:17.194Z,25.53
2017-11-06T19:28:44.915Z,24.37
2017-11-06T19:31:12.568Z,28.00
2017-11-06T19:33:40.375Z,22.83
2017-11-06T19:36:10.022Z,24.90
2017-11-06T19:38:38.668Z,23.30
2017-11-06T19:41:07.280Z,24.63
2017-11-06T19:43:35.281Z,25.03
2017-11-06T19:46:03.714Z,28.80
2017-11-06T19:48:31.270Z,35.60
2017-11-06T19:50:59.678Z,32.97
2017-11-06T19:53:27.438Z,31.07
2017-11-06T19:55:55.114Z,31.43
2017-11-06T19:58:24.070Z,26.57
2017-11-06T20:00:52.854Z,25.50
2017-11-06T20:10:10.830Z,28.03
2017-11-06T20:12:38.764Z,31.83
2017-11-06T20:15:06.424Z,32.60
2017-11-06T20:17:35.080Z,30.50
2017-11-06T20:20:02.659Z,28.67
2017-11-06T20:22:30.939Z,30.77
2017-11-06T20:24:58.533Z,31.40
2017-11-06T20:27:26.097Z,30.00
2017-11-06T20:29:53.962Z,28.43
2017-11-06T20:32:21.545Z,29.37
2017-11-06T20:34:49.309Z,32.00
2017-11-06T20:37:16.918Z,29.73
2017-11-06T20:39:45.538Z,32.57
2017-11-06T20:42:13.131Z,22.80
2017-11-06T20:44:41.470Z,28.77
2017-11-06T21:10:43.044Z,27.03
2017-11-06T21:13:10.606Z,29.03
2017-11-06T21:15:38.300Z,26.20
2017-11-06T21:18:06.651Z,22.50
2017-11-06T21:20:34.231Z,29.50
2017-11-06T21:23:01.774Z,28.60
2017-11-06T21:25:29.335Z,24.60
2017-11-06T21:27:56.884Z,20.43
2017-11-06T21:30:30.200Z,23.07
2017-11-06T21:32:57.753Z,24.10
2017-11-06T21:35:25.653Z,23.73
2017-11-06T21:37:53.181Z,23.53
2017-11-06T21:40:20.732Z,26.13
2017-11-06T21:42:49.055Z,24.03
2017-11-06T21:45:16.686Z,21.13
2017-11-06T21:47:44.268Z,23.13
2017-11-06T21:50:11.844Z,21.37
2017-11-06T21:52:39.778Z,24.43
2017-11-06T21:55:07.416Z,23.30
2017-11-06T21:57:34.965Z,22.07
2017-11-06T22:00:03.307Z,21.47
2017-11-06T22:02:30.946Z,25.20
2017-11-06T22:04:58.609Z,26.50
2017-11-06T22:07:26.152Z,23.57
2017-11-06T22:09:54.063Z,25.43
2017-11-06T22:12:21.616Z,24.50
2017-11-06T22:14:49.182Z,28.50
2017-11-06T22:17:16.813Z,24.93
2017-11-06T22:19:44.391Z,21.33
2017-11-06T22:22:11.959Z,29.10
2017-11-06T22:24:39.491Z,23.60
2017-11-06T22:27:07.411Z,22.70
2017-11-06T22:29:34.962Z,23.37
2017-11-06T22:32:02.508Z,21.63
2017-11-06T22:34:30.063Z,25.90
2017-11-06T22:36:58.347Z,33.80
2017-11-06T22:39:25.917Z,30.67
2017-11-06T22:41:53.518Z,22.80
2017-11-06T22:44:21.104Z,30.43
2017-11-06T22:46:48.641Z,22.80
2017-11-06T22:49:16.485Z,26.30
2017-11-06T22:51:44.038Z,32.37
2017-11-06T22:54:11.579Z,32.20
2017-11-06T22:56:39.148Z,25.70
2017-11-06T22:59:06.676Z,25.10
2017-11-06T23:01:34.223Z,23.73
2017-11-06T23:04:01.771Z,21.17
2017-11-06T23:06:30.510Z,24.17
2017-11-06T23:08:58.828Z,27.27
2017-11-06T23:11:26.362Z,23.37
2017-11-06T23:13:53.935Z,22.67
2017-11-06T23:16:21.491Z,22.10
2017-11-06T23:18:50.944Z,23.40
2017-11-06T23:21:19.238Z,23.80
2017-11-06T23:23:47.149Z,23.57
2017-11-06T23:26:14.689Z,26.53
2017-11-06T23:28:42.250Z,23.90
2017-11-06T23:31:09.794Z,26.70
2017-11-06T23:33:37.337Z,22.23
2017-11-06T23:36:04.886Z,24.03
2017-11-06T23:38:33.181Z,32.00
2017-11-06T23:41:01.077Z,23.60
2017-11-06T23:43:28.626Z,22.03
2017-11-06T23:45:56.174Z,23.90
2017-11-06T23:48:24.510Z,26.70
2017-11-06T23:50:56.277Z,23.50
2017-11-06T23:53:23.919Z,22.00
2017-11-06T23:55:51.478Z,22.67
2017-11-06T23:58:19.069Z,20.03
